createdAt,value
2023-04-07T00:04:48.395Z,59.39
2023-04-07T00:09:50.758Z,59.54
2023-04-07T00:14:53.118Z,59.75
2023-04-07T00:19:55.500Z,59.07
2023-04-07T00:24:58.250Z,59.02
2023-04-07T00:30:00.607Z,59.82
2023-04-07T00:35:03.041Z,59.31
2023-04-07T00:40:06.720Z,58.15
2023-04-07T00:45:10.905Z,58.95
2023-04-07T00:50:13.695Z,58.81
2023-04-07T00:55:16.217Z,58.37
2023-04-07T01:00:18.771Z,58.67
2023-04-07T01:05:29.943Z,58.43
2023-04-07T01:10:57.005Z,58.61
2023-04-07T01:16:05.502Z,59.64
2023-04-07T01:21:17.702Z,59.57
2023-04-07T01:26:31.148Z,59.49
2023-04-07T01:31:34.980Z,59.67
2023-04-07T01:36:37.939Z,59.79
2023-04-07T01:41:42.395Z,60.16
2023-04-07T01:46:44.880Z,59.61
2023-04-07T01:51:50.742Z,59.57
2023-04-07T01:56:53.370Z,59.90
2023-04-07T02:01:56.616Z,59.98
2023-04-07T02:07:06.556Z,60.14
2023-04-07T02:12:16.391Z,60.70
2023-04-07T02:17:32.398Z,60.33
2023-04-07T02:22:35.015Z,60.65
2023-04-07T02:27:37.357Z,60.40
2023-04-07T02:32:39.760Z,60.82
2023-04-07T02:37:42.448Z,60.63
2023-04-07T02:42:44.834Z,60.72
2023-04-07T02:47:47.224Z,61.03
2023-04-07T02:52:52.521Z,60.00
2023-04-07T02:57:54.871Z,61.28
2023-04-07T03:03:09.084Z,60.10
2023-04-07T03:08:14.087Z,59.95
2023-04-07T03:13:19.982Z,59.80
2023-04-07T03:18:22.332Z,59.92
2023-04-07T03:23:25.755Z,60.04
2023-04-07T03:28:28.111Z,59.29
2023-04-07T03:33:30.653Z,58.03
2023-04-07T03:38:33.110Z,58.09
2023-04-07T03:43:38.567Z,57.25
2023-04-07T03:48:41.148Z,56.09
2023-04-07T03:53:45.593Z,56.15
2023-04-07T03:59:05.460Z,57.31
2023-04-07T04:04:12.783Z,54.71
2023-04-07T04:09:15.978Z,52.19
2023-04-07T04:14:21.629Z,51.39
2023-04-07T04:19:29.860Z,52.62
2023-04-07T04:24:34.203Z,52.75
2023-04-07T04:29:38.962Z,50.60
2023-04-07T04:34:44.465Z,50.19
2023-04-07T04:39:48.425Z,48.24
2023-04-07T04:44:55.638Z,45.93
2023-04-07T04:49:58.454Z,45.54
2023-04-07T04:55:01.073Z,44.26
2023-04-07T05:00:07.987Z,42.93
2023-04-07T05:05:11.480Z,41.53
2023-04-07T05:10:16.988Z,41.14
2023-04-07T05:15:24.719Z,39.63
2023-04-07T05:20:27.293Z,37.80
2023-04-07T05:25:31.038Z,36.96
2023-04-07T05:30:36.996Z,35.51
2023-04-07T05:35:40.269Z,35.55
2023-04-07T05:40:42.802Z,34.47
2023-04-07T05:45:49.752Z,34.78
2023-04-07T05:50:52.695Z,33.97
2023-04-07T05:55:56.402Z,32.99
2023-04-07T06:01:14.957Z,34.05
2023-04-07T06:06:18.190Z,33.17
2023-04-07T06:11:21.399Z,32.01
2023-04-07T06:16:23.777Z,30.80
2023-04-07T06:21:27.706Z,32.67
2023-04-07T06:26:30.024Z,31.36
2023-04-07T06:31:32.672Z,32.26
2023-04-07T06:36:35.802Z,30.63
2023-04-07T06:41:39.207Z,31.66
2023-04-07T06:46:42.503Z,30.79
2023-04-07T06:51:44.914Z,29.85
2023-04-07T06:56:47.214Z,29.96
2023-04-07T07:01:49.688Z,29.46
2023-04-07T07:06:52.138Z,29.91
2023-04-07T07:11:54.632Z,30.18
2023-04-07T07:16:59.550Z,30.54
2023-04-07T07:22:04.365Z,30.00
2023-04-07T07:27:06.866Z,29.91
2023-04-07T07:32:09.282Z,29.83
2023-04-07T07:37:13.062Z,29.58
2023-04-07T07:42:15.709Z,29.03
2023-04-07T07:47:18.383Z,29.05
2023-04-07T07:52:22.221Z,27.88
2023-04-07T07:57:24.814Z,27.86
2023-04-07T08:02:31.637Z,28.45
2023-04-07T08:07:34.096Z,28.16
2023-04-07T08:12:36.440Z,27.53
2023-04-07T08:17:38.946Z,27.22
2023-04-07T08:22:41.666Z,27.56
2023-04-07T08:27:44.121Z,27.91
2023-04-07T08:32:46.833Z,28.17
2023-04-07T08:37:49.869Z,27.18
2023-04-07T08:42:52.973Z,27.46
2023-04-07T08:47:59.016Z,27.12
2023-04-07T08:53:07.580Z,26.67
2023-04-07T08:58:13.594Z,26.11
2023-04-07T09:03:18.275Z,27.21
2023-04-07T09:08:20.803Z,26.77
2023-04-07T09:13:24.956Z,26.84
2023-04-07T09:18:28.875Z,26.88
2023-04-07T09:23:39.895Z,26.12
2023-04-07T09:28:43.482Z,26.36
2023-04-07T09:33:46.751Z,27.48
2023-04-07T09:38:49.337Z,26.62
2023-04-07T09:43:58.384Z,26.22
2023-04-07T09:49:07.534Z,26.80
2023-04-07T09:54:10.050Z,26.01
2023-04-07T09:59:12.562Z,26.78
2023-04-07T10:04:15.138Z,26.78
2023-04-07T10:09:18.835Z,27.16
2023-04-07T10:14:24.460Z,27.57
2023-04-07T10:19:32.272Z,26.76
2023-04-07T10:24:57.866Z,26.98
2023-04-07T10:30:01.590Z,26.81
2023-04-07T10:35:05.513Z,26.89
2023-04-07T10:40:20.320Z,27.12
2023-04-07T10:45:48.717Z,26.59
2023-04-07T10:51:08.216Z,26.25
2023-04-07T10:56:10.664Z,26.56
2023-04-07T11:01:12.920Z,26.74
2023-04-07T11:06:15.328Z,27.89
2023-04-07T11:11:34.765Z,27.89
2023-04-07T11:16:43.327Z,29.51
2023-04-07T11:21:45.903Z,30.25
2023-04-07T11:26:50.034Z,30.81
2023-04-07T11:31:52.975Z,34.04
2023-04-07T11:36:59.724Z,33.95
2023-04-07T11:42:02.096Z,34.74
2023-04-07T11:47:05.489Z,34.45
2023-04-07T11:52:08.020Z,34.90
2023-04-07T11:57:13.120Z,35.14
2023-04-07T12:02:32.493Z,35.87
2023-04-07T12:07:34.971Z,36.36
2023-04-07T12:12:38.250Z,36.70
2023-04-07T12:17:45.608Z,36.61
2023-04-07T12:22:48.042Z,35.97
2023-04-07T12:27:50.308Z,36.86
2023-04-07T12:32:53.082Z,37.16
2023-04-07T12:37:55.510Z,36.81
2023-04-07T12:42:58.732Z,36.93
2023-04-07T12:48:01.308Z,36.35
2023-04-07T12:53:05.690Z,36.51
2023-04-07T12:58:09.305Z,36.75
2023-04-07T13:03:11.814Z,35.60
2023-04-07T13:08:14.331Z,36.13
2023-04-07T13:13:16.750Z,36.23
2023-04-07T13:18:19.264Z,36.44
2023-04-07T13:23:21.704Z,36.10
2023-04-07T13:28:25.435Z,35.10
2023-04-07T13:33:27.777Z,33.99
2023-04-07T13:38:30.150Z,35.64
2023-04-07T13:43:32.433Z,36.41
2023-04-07T13:48:34.805Z,34.49
2023-04-07T13:53:37.192Z,33.79
2023-04-07T13:58:39.510Z,33.33
2023-04-07T14:03:43.199Z,32.80
2023-04-07T14:08:45.819Z,33.72
2023-04-07T14:13:49.092Z,35.69
2023-04-07T14:18:51.902Z,36.58
2023-04-07T14:23:55.126Z,36.54
2023-04-07T14:28:57.675Z,36.61
2023-04-07T14:34:00.258Z,36.79
2023-04-07T14:39:02.977Z,36.89
2023-04-07T14:44:05.269Z,37.01
2023-04-07T14:49:08.178Z,37.65
2023-04-07T14:54:10.806Z,38.54
2023-04-07T14:59:13.170Z,38.98
2023-04-07T15:04:15.804Z,39.54
2023-04-07T15:09:19.456Z,40.14
2023-04-07T15:14:21.706Z,40.91
2023-04-07T15:19:24.068Z,41.41
2023-04-07T15:24:26.589Z,42.16
2023-04-07T15:29:28.992Z,42.45
2023-04-07T15:34:31.427Z,43.18
2023-04-07T15:39:33.741Z,43.44
2023-04-07T15:44:40.078Z,43.75
2023-04-07T15:49:42.606Z,44.29
2023-04-07T15:54:44.910Z,43.95
2023-04-07T15:59:47.260Z,44.57
2023-04-07T16:04:49.603Z,45.31
2023-04-07T16:09:51.959Z,45.90
2023-04-07T16:14:54.449Z,45.94
2023-04-07T16:19:56.834Z,46.36
2023-04-07T16:24:59.167Z,47.20
2023-04-07T16:30:01.473Z,47.23
2023-04-07T16:35:04.468Z,47.30
2023-04-07T16:40:07.727Z,47.53
2023-04-07T16:45:10.672Z,47.25
2023-04-07T16:50:13.015Z,47.71
2023-04-07T16:55:15.388Z,47.94
2023-04-07T17:00:17.738Z,47.74
2023-04-07T17:05:20.147Z,47.73
2023-04-07T17:10:22.473Z,47.96
2023-04-07T17:15:24.912Z,48.86
2023-04-07T17:20:27.483Z,48.89
2023-04-07T17:25:29.851Z,49.14
2023-04-07T17:30:32.370Z,48.59
2023-04-07T17:35:35.840Z,49.01
2023-04-07T17:40:38.169Z,48.58
2023-04-07T17:45:40.834Z,48.40
2023-04-07T17:50:43.654Z,48.51
2023-04-07T17:55:45.957Z,48.58
2023-04-07T18:00:48.353Z,48.63
2023-04-07T18:05:50.919Z,48.61
2023-04-07T18:10:53.241Z,48.46
2023-04-07T18:15:55.601Z,48.37
2023-04-07T18:20:58.255Z,48.00
2023-04-07T18:26:05.377Z,48.39
2023-04-07T18:31:08.328Z,48.25
2023-04-07T18:36:12.119Z,48.09
2023-04-07T18:41:14.488Z,47.64
2023-04-07T18:46:17.416Z,47.36
2023-04-07T18:51:19.764Z,47.44
2023-04-07T18:56:22.511Z,47.66
2023-04-07T19:01:25.029Z,46.86
2023-04-07T19:06:28.224Z,46.87
2023-04-07T19:11:31.166Z,46.69
2023-04-07T19:16:34.980Z,46.53
2023-04-07T19:21:37.834Z,45.99
2023-04-07T19:26:40.363Z,45.91
2023-04-07T19:31:43.401Z,45.69
2023-04-07T19:36:45.709Z,45.34
2023-04-07T19:41:48.090Z,45.28
2023-04-07T19:46:50.652Z,45.28
2023-04-07T19:51:54.342Z,45.25
2023-04-07T19:56:56.702Z,44.72
2023-04-07T20:01:59.250Z,45.25
2023-04-07T20:07:01.923Z,44.98
2023-04-07T20:12:04.445Z,44.70
2023-04-07T20:17:06.921Z,45.00
2023-04-07T20:22:09.549Z,44.85
2023-04-07T20:27:12.020Z,44.63
2023-04-07T20:32:14.393Z,44.92
2023-04-07T20:37:16.709Z,44.16
2023-04-07T20:42:19.147Z,43.97
2023-04-07T20:47:21.559Z,43.25
2023-04-07T20:52:25.570Z,43.42
2023-04-07T20:57:28.621Z,43.33
2023-04-07T21:02:31.201Z,43.63
2023-04-07T21:07:33.634Z,43.71
2023-04-07T21:12:36.719Z,43.90
2023-04-07T21:17:39.167Z,44.00
2023-04-07T21:22:41.659Z,44.21
2023-04-07T21:27:43.969Z,44.69
2023-04-07T21:32:46.421Z,45.61
2023-04-07T21:37:48.836Z,45.94
2023-04-07T21:42:52.270Z,46.98
2023-04-07T21:47:54.645Z,46.85
2023-04-07T21:52:57.022Z,47.41
2023-04-07T21:57:59.398Z,48.55
2023-04-07T22:03:02.095Z,48.87
2023-04-07T22:08:04.639Z,48.76
2023-04-07T22:13:06.920Z,49.55
2023-04-07T22:18:09.352Z,50.01
2023-04-07T22:23:11.633Z,50.25
2023-04-07T22:28:14.243Z,51.49
2023-04-07T22:33:16.568Z,51.29
2023-04-07T22:38:18.907Z,51.91
2023-04-07T22:43:21.424Z,52.35
2023-04-07T22:48:23.755Z,52.96
2023-04-07T22:53:26.146Z,54.10
2023-04-07T22:58:28.661Z,54.38
2023-04-07T23:03:31.996Z,54.60
2023-04-07T23:08:34.572Z,55.02
2023-04-07T23:13:36.945Z,55.67
2023-04-07T23:18:42.832Z,55.80
2023-04-07T23:23:45.154Z,56.51
2023-04-07T23:28:49.035Z,56.22
2023-04-07T23:33:51.871Z,56.95
2023-04-07T23:38:57.261Z,57.05
2023-04-07T23:43:59.641Z,58.03
2023-04-07T23:49:02.364Z,58.23
2023-04-07T23:54:04.725Z,58.57
2023-04-07T23:59:07.350Z,59.21
